createdAt,value
2018-09-18T00:00:28.742Z,7.50
2018-09-18T00:03:04.062Z,8.13
2018-09-18T00:05:32.579Z,9.00
2018-09-18T00:08:01.035Z,9.30
2018-09-18T00:10:29.610Z,8.53
2018-09-18T00:12:58.005Z,7.30
2018-09-18T00:15:26.812Z,7.63
2018-09-18T00:17:55.341Z,7.90
2018-09-18T00:20:23.806Z,8.63
2018-09-18T00:22:52.272Z,7.63
2018-09-18T00:25:20.766Z,8.83
2018-09-18T00:27:49.140Z,10.10
2018-09-18T00:30:17.617Z,9.77
2018-09-18T00:32:46.242Z,6.23
2018-09-18T00:35:14.885Z,8.43
2018-09-18T00:37:43.356Z,6.50
2018-09-18T00:40:11.822Z,9.13
2018-09-18T00:42:40.332Z,7.03
2018-09-18T00:45:08.818Z,10.30
2018-09-18T00:47:37.305Z,6.73
2018-09-18T00:50:06.330Z,10.07
2018-09-18T00:52:34.968Z,9.83
2018-09-18T00:55:03.321Z,8.50
2018-09-18T00:57:31.938Z,7.47
2018-09-18T01:00:00.394Z,10.77
2018-09-18T01:02:29.036Z,7.40
2018-09-18T01:04:57.411Z,8.03
2018-09-18T01:07:25.984Z,10.90
2018-09-18T01:09:54.769Z,5.73
2018-09-18T01:12:23.235Z,7.23
2018-09-18T01:14:51.692Z,6.13
2018-09-18T01:17:20.316Z,9.07
2018-09-18T01:19:48.893Z,8.47
2018-09-18T01:22:17.403Z,8.27
2018-09-18T01:24:45.964Z,6.93
2018-09-18T01:27:14.388Z,6.10
2018-09-18T01:29:43.063Z,6.93
2018-09-18T01:32:11.556Z,6.57
2018-09-18T01:34:40.108Z,8.40
2018-09-18T01:37:15.354Z,7.37
2018-09-18T01:39:43.836Z,9.70
2018-09-18T01:42:12.336Z,8.73
2018-09-18T01:44:40.777Z,7.73
2018-09-18T01:47:09.221Z,9.87
2018-09-18T01:49:37.669Z,10.23
2018-09-18T01:52:06.463Z,8.23
2018-09-18T01:54:35.055Z,8.33
2018-09-18T01:57:03.543Z,7.87
2018-09-18T01:59:31.823Z,8.10
2018-09-18T02:02:00.267Z,9.90
2018-09-18T02:04:28.660Z,8.33
2018-09-18T02:06:57.084Z,11.03
2018-09-18T02:09:25.504Z,11.07
2018-09-18T02:11:53.989Z,8.43
2018-09-18T02:14:22.461Z,8.03
2018-09-18T02:16:50.930Z,7.50
2018-09-18T02:19:19.442Z,5.77
2018-09-18T02:21:47.894Z,10.90
2018-09-18T02:24:16.396Z,10.20
2018-09-18T02:26:44.915Z,7.60
2018-09-18T02:29:13.374Z,7.43
2018-09-18T02:34:25.874Z,10.03
2018-09-18T02:36:54.285Z,8.67
2018-09-18T02:39:22.702Z,6.93
2018-09-18T02:41:51.233Z,10.97
2018-09-18T02:44:19.840Z,10.60
2018-09-18T02:46:50.619Z,13.47
2018-09-18T02:49:19.098Z,6.67
2018-09-18T02:51:47.733Z,9.20
2018-09-18T02:54:16.202Z,7.43
2018-09-18T02:56:44.693Z,10.87
2018-09-18T02:59:13.104Z,8.90
2018-09-18T03:01:41.508Z,10.77
2018-09-18T03:04:09.986Z,8.23
2018-09-18T03:06:38.547Z,7.90
2018-09-18T03:09:08.560Z,7.33
2018-09-18T03:11:37.116Z,10.37
2018-09-18T03:14:10.143Z,10.63
2018-09-18T03:16:38.692Z,9.83
2018-09-18T03:19:07.074Z,6.17
2018-09-18T03:21:35.450Z,6.90
2018-09-18T03:24:04.066Z,6.60
2018-09-18T03:26:41.379Z,8.50
2018-09-18T03:29:16.797Z,8.87
2018-09-18T03:31:54.713Z,10.30
2018-09-18T03:34:34.020Z,11.60
2018-09-18T03:37:22.502Z,9.40
2018-09-18T03:40:04.142Z,6.70
2018-09-18T03:42:48.037Z,9.67
2018-09-18T03:45:25.658Z,10.00
2018-09-18T03:48:01.129Z,7.10
2018-09-18T03:50:29.490Z,8.33
2018-09-18T03:52:57.888Z,9.53
2018-09-18T03:55:26.228Z,8.07
2018-09-18T03:57:54.653Z,8.10
2018-09-18T04:00:29.721Z,7.07
2018-09-18T04:02:59.091Z,12.23
2018-09-18T04:05:27.514Z,7.87
2018-09-18T04:07:55.930Z,7.73
2018-09-18T04:10:30.774Z,6.70
2018-09-18T04:12:59.177Z,7.13
2018-09-18T04:15:34.204Z,11.60
2018-09-18T04:18:02.610Z,8.50
2018-09-18T04:20:31.015Z,9.63
2018-09-18T04:22:59.443Z,10.17
2018-09-18T04:25:27.919Z,10.13
2018-09-18T04:27:56.309Z,8.37
2018-09-18T04:30:24.675Z,6.77
2018-09-18T04:32:53.195Z,8.67
2018-09-18T04:35:21.669Z,7.30
2018-09-18T04:37:50.094Z,10.10
2018-09-18T04:40:18.561Z,8.90
2018-09-18T04:42:47.156Z,11.07
2018-09-18T04:45:15.883Z,10.03
2018-09-18T04:47:44.425Z,9.03
2018-09-18T04:50:12.900Z,8.80
2018-09-18T04:52:41.756Z,11.00
2018-09-18T04:55:10.147Z,9.43
2018-09-18T04:57:38.687Z,9.27
2018-09-18T05:00:08.150Z,7.13
2018-09-18T05:02:36.721Z,13.03
2018-09-18T05:05:10.696Z,6.97
2018-09-18T05:07:40.056Z,7.70
2018-09-18T05:10:14.621Z,6.93
2018-09-18T05:12:48.420Z,8.40
2018-09-18T05:15:23.427Z,13.30
2018-09-18T05:20:48.315Z,9.43
2018-09-18T05:23:19.372Z,13.47
2018-09-18T05:41:03.845Z,9.77
2018-09-18T05:43:40.322Z,8.63
2018-09-18T05:46:26.155Z,9.17
2018-09-18T05:48:55.838Z,7.30
2018-09-18T05:55:03.689Z,11.00
2018-09-18T06:01:27.025Z,12.20
2018-09-18T06:04:17.055Z,9.43
2018-09-18T06:07:24.919Z,8.90
2018-09-18T06:10:06.668Z,9.53
2018-09-18T06:12:58.397Z,11.57
2018-09-18T06:19:16.905Z,9.27
2018-09-18T06:22:46.057Z,14.53
2018-09-18T06:34:53.647Z,13.00
2018-09-18T06:37:46.379Z,16.33
2018-09-18T06:40:27.149Z,12.83
2018-09-18T06:45:47.794Z,10.23
2018-09-18T06:51:05.375Z,10.53
2018-09-18T06:53:42.120Z,14.67
2018-09-18T06:56:41.694Z,13.77
2018-09-18T07:15:40.859Z,11.07
2018-09-18T07:21:20.014Z,12.50
2018-09-18T07:23:59.953Z,9.90
2018-09-18T07:26:35.312Z,10.83
2018-09-18T07:29:12.732Z,11.50
2018-09-18T07:31:44.468Z,8.23
2018-09-18T07:34:28.035Z,10.27
2018-09-18T07:38:35.255Z,9.07
2018-09-18T09:28:50.146Z,6.43
2018-09-18T09:31:44.905Z,10.57
2018-09-18T09:59:19.947Z,14.40
2018-09-18T10:02:05.237Z,8.97
2018-09-18T10:08:24.810Z,6.67
2018-09-18T12:05:45.849Z,20.97
2018-09-18T12:08:14.705Z,9.57
2018-09-18T12:10:44.152Z,10.73
2018-09-18T12:13:16.577Z,15.33
2018-09-18T12:15:45.578Z,6.97
2018-09-18T12:18:16.444Z,23.27
2018-09-18T12:20:45.468Z,7.93
2018-09-18T12:23:17.300Z,7.17
2018-09-18T12:25:47.366Z,8.37
2018-09-18T12:28:19.147Z,9.00
2018-09-18T12:30:51.787Z,6.63
2018-09-18T12:33:22.984Z,10.60
2018-09-18T12:35:54.213Z,10.07
2018-09-18T12:38:26.272Z,7.10
2018-09-18T12:40:56.703Z,7.57
2018-09-18T12:43:29.403Z,4.33
2018-09-18T12:48:59.444Z,8.13
2018-09-18T12:51:27.895Z,8.77
2018-09-18T12:53:56.237Z,6.37
2018-09-18T12:56:24.638Z,8.73
2018-09-18T12:58:53.101Z,10.40
2018-09-18T13:01:21.674Z,6.67
2018-09-18T13:03:50.553Z,9.47
2018-09-18T13:06:19.264Z,8.17
2018-09-18T13:08:47.601Z,9.63
2018-09-18T13:11:16.070Z,6.30
2018-09-18T13:13:44.545Z,8.67
2018-09-18T13:16:19.584Z,7.67
2018-09-18T13:18:48.302Z,5.53
2018-09-18T13:21:16.807Z,6.57
2018-09-18T13:23:46.026Z,5.57
2018-09-18T13:26:14.556Z,4.83
2018-09-18T13:28:43.034Z,7.50
2018-09-18T13:31:11.688Z,8.80
2018-09-18T13:33:40.299Z,6.83
2018-09-18T13:36:08.753Z,10.67
2018-09-18T13:38:37.130Z,6.00
2018-09-18T13:41:05.559Z,5.37
2018-09-18T13:43:33.950Z,3.37
2018-09-18T13:46:02.449Z,6.63
2018-09-18T13:48:31.127Z,3.47
2018-09-18T13:51:00.471Z,9.40
2018-09-18T13:53:29.621Z,9.23
2018-09-18T13:55:58.364Z,5.40
2018-09-18T13:58:26.904Z,10.37
2018-09-18T14:00:55.751Z,7.27
2018-09-18T14:03:24.291Z,5.47
2018-09-18T14:05:52.737Z,6.00
2018-09-18T14:08:21.332Z,6.43
2018-09-18T14:10:49.790Z,6.40
2018-09-18T14:13:18.241Z,8.73
2018-09-18T14:15:46.686Z,8.47
2018-09-18T14:18:15.867Z,5.37
2018-09-18T14:51:02.902Z,9.20
2018-09-18T15:02:37.674Z,8.60
2018-09-18T15:05:11.698Z,8.20
2018-09-18T16:14:36.177Z,8.97
2018-09-18T16:17:04.739Z,8.37
2018-09-18T16:19:45.481Z,9.67
2018-09-18T16:22:22.897Z,10.13
2018-09-18T16:25:04.171Z,7.13
2018-09-18T16:27:40.157Z,9.20
2018-09-18T16:30:13.508Z,9.50
2018-09-18T16:48:51.472Z,9.57
2018-09-18T16:55:02.477Z,12.33
2018-09-18T16:58:11.393Z,10.13
2018-09-18T17:00:52.344Z,10.30
2018-09-18T17:03:31.687Z,12.67
2018-09-18T17:06:11.083Z,10.40
2018-09-18T17:08:41.940Z,9.40
2018-09-18T17:11:12.325Z,15.70
2018-09-18T17:13:48.941Z,17.17
2018-09-18T17:16:28.931Z,12.07
2018-09-18T17:19:24.920Z,11.93
2018-09-18T17:24:40.070Z,12.73
2018-09-18T17:27:13.832Z,8.33
2018-09-18T17:29:44.114Z,11.53
2018-09-18T17:32:12.662Z,18.10
2018-09-18T17:34:41.533Z,15.77
2018-09-18T17:37:10.573Z,20.90
2018-09-18T17:39:39.267Z,13.77
2018-09-18T17:42:07.891Z,16.50
2018-09-18T17:44:36.514Z,16.33
2018-09-18T17:47:05.028Z,15.80
2018-09-18T17:49:35.311Z,14.33
2018-09-18T17:52:11.411Z,15.20
2018-09-18T17:54:41.192Z,17.40
2018-09-18T17:57:15.329Z,15.30
2018-09-18T18:00:18.592Z,11.67
2018-09-18T18:02:47.271Z,15.50
2018-09-18T18:05:21.476Z,15.83
2018-09-18T18:07:50.950Z,13.70
2018-09-18T18:10:20.677Z,12.87
2018-09-18T18:12:50.195Z,18.33
2018-09-18T18:15:20.319Z,14.77
2018-09-18T18:17:49.670Z,12.43
2018-09-18T18:20:18.362Z,19.03
2018-09-18T18:22:46.986Z,16.60
2018-09-18T18:25:15.537Z,21.07
2018-09-18T18:27:45.135Z,18.10
2018-09-18T18:33:14.830Z,18.10
2018-09-18T18:35:45.214Z,17.73
2018-09-18T18:38:17.223Z,14.33
2018-09-18T18:41:01.287Z,18.50
2018-09-18T18:43:33.528Z,17.73
2018-09-18T18:46:06.646Z,17.77
2018-09-18T18:48:39.048Z,14.97
2018-09-18T18:51:12.466Z,19.77
2018-09-18T18:53:44.316Z,14.97
2018-09-18T18:56:13.039Z,17.57
2018-09-18T18:58:42.103Z,15.30
2018-09-18T19:01:10.879Z,14.20
2018-09-18T19:03:46.293Z,18.80
2018-09-18T19:06:15.217Z,18.50
2018-09-18T19:08:44.059Z,15.33
2018-09-18T19:11:13.501Z,16.87
2018-09-18T19:13:49.048Z,16.53
2018-09-18T19:16:18.008Z,18.57
2018-09-18T19:18:47.117Z,17.33
2018-09-18T19:21:16.088Z,19.10
2018-09-18T19:23:44.855Z,16.80
2018-09-18T19:26:18.837Z,19.57
2018-09-18T19:28:47.585Z,16.33
2018-09-18T19:31:23.393Z,15.83
2018-09-18T19:33:52.537Z,17.20
2018-09-18T19:36:21.323Z,14.90
2018-09-18T19:39:16.833Z,14.23
2018-09-18T19:41:48.095Z,18.93
2018-09-18T19:44:18.178Z,22.30
2018-09-18T19:46:49.093Z,21.50
2018-09-18T19:49:18.375Z,20.90
2018-09-18T19:51:47.146Z,16.90
2018-09-18T19:54:16.722Z,22.27
2018-09-18T19:56:46.266Z,21.37
2018-09-18T19:59:18.353Z,18.10
2018-09-18T20:01:53.207Z,18.60
2018-09-18T20:04:23.150Z,15.40
2018-09-18T20:06:53.128Z,14.70
2018-09-18T20:09:22.980Z,19.83
2018-09-18T20:11:54.104Z,18.37
2018-09-18T20:14:33.797Z,13.00
2018-09-18T20:17:08.244Z,21.43
2018-09-18T20:19:38.972Z,20.33
2018-09-18T20:22:09.828Z,17.47
2018-09-18T20:24:40.568Z,16.83
2018-09-18T20:27:09.761Z,19.97
2018-09-18T20:29:38.552Z,15.10
2018-09-18T20:32:07.964Z,19.13
2018-09-18T20:34:37.932Z,16.13
2018-09-18T20:37:07.200Z,23.70
2018-09-18T20:39:43.307Z,21.47
2018-09-18T20:42:37.672Z,15.97
2018-09-18T20:45:12.556Z,18.83
2018-09-18T20:47:42.349Z,16.77
2018-09-18T20:50:18.338Z,20.17
2018-09-18T20:52:56.143Z,17.90
2018-09-18T20:55:44.415Z,19.20
2018-09-18T21:00:58.635Z,16.87
2018-09-18T21:03:28.429Z,17.83
2018-09-18T21:05:59.519Z,24.27
2018-09-18T21:08:28.554Z,19.47
2018-09-18T21:10:58.892Z,21.50
2018-09-18T21:13:29.894Z,19.83
2018-09-18T21:15:59.198Z,21.53
2018-09-18T21:18:28.459Z,20.30
2018-09-18T21:21:01.140Z,14.63
2018-09-18T21:23:31.894Z,22.10
2018-09-18T21:26:06.288Z,17.73
2018-09-18T21:29:42.025Z,21.07
2018-09-18T21:32:11.544Z,21.57
2018-09-18T21:34:52.412Z,17.70
2018-09-18T21:37:27.938Z,19.03
2018-09-18T21:39:58.390Z,22.23
2018-09-18T21:42:27.068Z,20.33
2018-09-18T21:44:55.549Z,19.10
2018-09-18T21:47:24.344Z,18.20
2018-09-18T21:49:52.866Z,16.53
2018-09-18T21:52:21.498Z,16.53
2018-09-18T21:54:49.943Z,18.27
2018-09-18T21:57:20.096Z,17.20
2018-09-18T21:59:49.389Z,19.97
2018-09-18T22:02:18.252Z,25.20
2018-09-18T22:04:46.748Z,18.67
2018-09-18T22:07:15.466Z,25.70
2018-09-18T22:09:44.028Z,22.90
2018-09-18T22:12:12.908Z,21.07
2018-09-18T22:14:43.265Z,21.57
2018-09-18T22:17:11.852Z,19.67
2018-09-18T22:19:40.756Z,20.93
2018-09-18T22:22:09.366Z,23.47
2018-09-18T22:24:37.825Z,23.83
2018-09-18T22:27:06.472Z,22.67
2018-09-18T22:29:35.165Z,24.67
2018-09-18T22:32:05.345Z,26.80
2018-09-18T22:34:33.930Z,23.73
2018-09-18T22:37:03.653Z,22.07
2018-09-18T22:39:39.233Z,25.67
2018-09-18T22:42:08.771Z,24.87
2018-09-18T22:44:37.490Z,24.27
2018-09-18T22:47:06.386Z,18.77
2018-09-18T22:49:36.973Z,22.40
2018-09-18T22:52:12.191Z,31.67
2018-09-18T22:54:40.908Z,25.67
2018-09-18T22:57:09.432Z,24.80
2018-09-18T22:59:38.065Z,22.43
2018-09-18T23:02:06.600Z,21.20
2018-09-18T23:04:35.083Z,23.03
2018-09-18T23:07:03.487Z,24.70
2018-09-18T23:09:31.909Z,16.40
2018-09-18T23:12:00.335Z,20.67
2018-09-18T23:14:29.197Z,22.43
2018-09-18T23:16:57.723Z,20.70
2018-09-18T23:19:26.698Z,20.97
2018-09-18T23:21:55.232Z,19.30
2018-09-18T23:24:23.615Z,18.67
2018-09-18T23:26:52.035Z,16.27
2018-09-18T23:29:20.827Z,15.50
2018-09-18T23:31:49.206Z,16.80
2018-09-18T23:34:24.438Z,14.73
2018-09-18T23:36:52.825Z,15.73
2018-09-18T23:39:21.218Z,21.07
2018-09-18T23:41:50.048Z,17.73
2018-09-18T23:44:18.442Z,19.13
2018-09-18T23:46:46.811Z,19.40
2018-09-18T23:49:18.080Z,16.13
2018-09-18T23:51:46.559Z,19.37
2018-09-18T23:54:15.378Z,18.97
2018-09-18T23:56:44.065Z,15.60
2018-09-18T23:59:13.421Z,14.67
